sensor_id;sensor_type;location;lat;lon;timestamp;temperature;humidity
73112;HTU21D;61301;51.956;5.876;2022-10-22T00:00:41;16.66;63.91
73112;HTU21D;61301;51.956;5.876;2022-10-22T00:03:07;16.63;63.87
73112;HTU21D;61301;51.956;5.876;2022-10-22T00:05:33;16.57;63.94
73112;HTU21D;61301;51.956;5.876;2022-10-22T00:07:59;16.58;63.85
73112;HTU21D;61301;51.956;5.876;2022-10-22T00:10:25;16.56;63.80
73112;HTU21D;61301;51.956;5.876;2022-10-22T00:12:51;16.51;63.94
73112;HTU21D;61301;51.956;5.876;2022-10-22T00:15:17;16.56;63.80
73112;HTU21D;61301;51.956;5.876;2022-10-22T00:17:43;16.57;63.69
73112;HTU21D;61301;51.956;5.876;2022-10-22T00:20:09;16.58;63.71
73112;HTU21D;61301;51.956;5.876;2022-10-22T00:22:35;16.54;63.83
73112;HTU21D;61301;51.956;5.876;2022-10-22T00:25:01;16.48;63.98
73112;HTU21D;61301;51.956;5.876;2022-10-22T00:27:27;16.47;63.90
73112;HTU21D;61301;51.956;5.876;2022-10-22T00:29:53;16.40;63.95
73112;HTU21D;61301;51.956;5.876;2022-10-22T00:32:19;16.36;64.04
73112;HTU21D;61301;51.956;5.876;2022-10-22T00:34:45;16.35;64.03
73112;HTU21D;61301;51.956;5.876;2022-10-22T00:37:11;16.42;63.84
73112;HTU21D;61301;51.956;5.876;2022-10-22T00:39:37;16.42;63.79
73112;HTU21D;61301;51.956;5.876;2022-10-22T00:42:03;16.44;63.78
73112;HTU21D;61301;51.956;5.876;2022-10-22T00:50:08;16.46;63.61
73112;HTU21D;61301;51.956;5.876;2022-10-22T00:52:36;16.43;63.66
73112;HTU21D;61301;51.956;5.876;2022-10-22T00:55:03;16.52;63.44
73112;HTU21D;61301;51.956;5.876;2022-10-22T00:57:29;16.46;63.62
73112;HTU21D;61301;51.956;5.876;2022-10-22T00:59:56;16.45;63.61
73112;HTU21D;61301;51.956;5.876;2022-10-22T01:02:22;16.42;63.60
73112;HTU21D;61301;51.956;5.876;2022-10-22T01:04:49;16.40;63.65
73112;HTU21D;61301;51.956;5.876;2022-10-22T01:07:20;16.32;63.88
73112;HTU21D;61301;51.956;5.876;2022-10-22T01:10:07;16.33;63.93
73112;HTU21D;61301;51.956;5.876;2022-10-22T01:12:47;16.27;64.08
73112;HTU21D;61301;51.956;5.876;2022-10-22T01:29:17;16.30;63.75
73112;HTU21D;61301;51.956;5.876;2022-10-22T01:31:50;16.28;63.82
73112;HTU21D;61301;51.956;5.876;2022-10-22T01:34:19;16.26;63.82
73112;HTU21D;61301;51.956;5.876;2022-10-22T01:36:45;16.27;63.85
73112;HTU21D;61301;51.956;5.876;2022-10-22T01:39:14;16.25;63.92
73112;HTU21D;61301;51.956;5.876;2022-10-22T01:41:43;16.21;63.98
73112;HTU21D;61301;51.956;5.876;2022-10-22T01:44:29;16.20;64.02
73112;HTU21D;61301;51.956;5.876;2022-10-22T01:47:13;16.12;63.98
73112;HTU21D;61301;51.956;5.876;2022-10-22T01:58:08;15.95;64.06
73112;HTU21D;61301;51.956;5.876;2022-10-22T02:00:49;15.96;64.06
73112;HTU21D;61301;51.956;5.876;2022-10-22T02:03:27;15.92;64.06
73112;HTU21D;61301;51.956;5.876;2022-10-22T02:05:59;15.90;64.04
73112;HTU21D;61301;51.956;5.876;2022-10-22T02:08:29;15.86;64.26
73112;HTU21D;61301;51.956;5.876;2022-10-22T02:10:56;15.83;64.30
73112;HTU21D;61301;51.956;5.876;2022-10-22T02:13:36;15.84;64.25
73112;HTU21D;61301;51.956;5.876;2022-10-22T02:16:07;15.80;64.25
73112;HTU21D;61301;51.956;5.876;2022-10-22T02:18:36;15.78;64.18
73112;HTU21D;61301;51.956;5.876;2022-10-22T02:21:03;15.78;64.14
73112;HTU21D;61301;51.956;5.876;2022-10-22T02:23:30;15.81;64.01
73112;HTU21D;61301;51.956;5.876;2022-10-22T02:26:02;15.74;64.26
73112;HTU21D;61301;51.956;5.876;2022-10-22T02:28:36;15.71;64.34
73112;HTU21D;61301;51.956;5.876;2022-10-22T02:31:15;15.68;64.49
73112;HTU21D;61301;51.956;5.876;2022-10-22T02:33:47;15.60;64.63
73112;HTU21D;61301;51.956;5.876;2022-10-22T02:36:15;15.61;64.57
73112;HTU21D;61301;51.956;5.876;2022-10-22T02:38:42;15.63;64.60
73112;HTU21D;61301;51.956;5.876;2022-10-22T02:41:09;15.59;64.70
73112;HTU21D;61301;51.956;5.876;2022-10-22T02:43:44;15.62;64.56
73112;HTU21D;61301;51.956;5.876;2022-10-22T02:46:10;15.55;64.75
73112;HTU21D;61301;51.956;5.876;2022-10-22T02:48:36;15.54;64.66
73112;HTU21D;61301;51.956;5.876;2022-10-22T02:51:02;15.55;64.64
73112;HTU21D;61301;51.956;5.876;2022-10-22T02:53:28;15.54;64.59
73112;HTU21D;61301;51.956;5.876;2022-10-22T02:55:54;15.55;64.45
73112;HTU21D;61301;51.956;5.876;2022-10-22T02:58:20;15.52;64.53
73112;HTU21D;61301;51.956;5.876;2022-10-22T03:00:47;15.48;64.50
73112;HTU21D;61301;51.956;5.876;2022-10-22T03:03:13;15.45;64.79
73112;HTU21D;61301;51.956;5.876;2022-10-22T03:05:39;15.42;64.99
73112;HTU21D;61301;51.956;5.876;2022-10-22T03:08:05;15.40;64.99
73112;HTU21D;61301;51.956;5.876;2022-10-22T03:10:31;15.36;64.98
73112;HTU21D;61301;51.956;5.876;2022-10-22T03:12:57;15.38;64.94
73112;HTU21D;61301;51.956;5.876;2022-10-22T03:15:23;15.38;64.88
73112;HTU21D;61301;51.956;5.876;2022-10-22T03:17:49;15.39;64.76
73112;HTU21D;61301;51.956;5.876;2022-10-22T03:20:15;15.41;64.77
73112;HTU21D;61301;51.956;5.876;2022-10-22T03:22:42;15.42;64.73
73112;HTU21D;61301;51.956;5.876;2022-10-22T03:25:11;15.46;64.64
73112;HTU21D;61301;51.956;5.876;2022-10-22T03:27:39;15.49;64.66
73112;HTU21D;61301;51.956;5.876;2022-10-22T03:30:06;15.48;64.75
73112;HTU21D;61301;51.956;5.876;2022-10-22T03:32:32;15.48;64.78
73112;HTU21D;61301;51.956;5.876;2022-10-22T03:34:58;15.46;64.82
73112;HTU21D;61301;51.956;5.876;2022-10-22T03:37:25;15.45;64.76
73112;HTU21D;61301;51.956;5.876;2022-10-22T03:39:52;15.44;64.87
73112;HTU21D;61301;51.956;5.876;2022-10-22T03:42:19;15.42;64.90
73112;HTU21D;61301;51.956;5.876;2022-10-22T03:44:46;15.42;64.83
73112;HTU21D;61301;51.956;5.876;2022-10-22T03:47:13;15.43;64.85
73112;HTU21D;61301;51.956;5.876;2022-10-22T03:49:39;15.44;64.79
73112;HTU21D;61301;51.956;5.876;2022-10-22T03:52:06;15.44;64.88
73112;HTU21D;61301;51.956;5.876;2022-10-22T03:54:33;15.44;64.82
73112;HTU21D;61301;51.956;5.876;2022-10-22T03:56:59;15.39;64.98
73112;HTU21D;61301;51.956;5.876;2022-10-22T03:59:25;15.38;64.95
73112;HTU21D;61301;51.956;5.876;2022-10-22T04:01:51;15.34;65.11
73112;HTU21D;61301;51.956;5.876;2022-10-22T04:04:17;15.34;65.13
73112;HTU21D;61301;51.956;5.876;2022-10-22T04:06:43;15.36;65.15
73112;HTU21D;61301;51.956;5.876;2022-10-22T04:09:09;15.37;65.21
73112;HTU21D;61301;51.956;5.876;2022-10-22T04:11:35;15.34;65.20
73112;HTU21D;61301;51.956;5.876;2022-10-22T04:14:01;15.32;65.18
73112;HTU21D;61301;51.956;5.876;2022-10-22T04:16:27;15.30;65.23
73112;HTU21D;61301;51.956;5.876;2022-10-22T04:18:56;15.32;65.09
73112;HTU21D;61301;51.956;5.876;2022-10-22T04:21:22;15.38;65.09
73112;HTU21D;61301;51.956;5.876;2022-10-22T04:23:50;15.41;65.09
73112;HTU21D;61301;51.956;5.876;2022-10-22T04:26:16;15.40;65.14
73112;HTU21D;61301;51.956;5.876;2022-10-22T04:28:43;15.42;65.83
73112;HTU21D;61301;51.956;5.876;2022-10-22T04:31:14;15.39;66.14
73112;HTU21D;61301;51.956;5.876;2022-10-22T04:33:41;15.41;69.01
73112;HTU21D;61301;51.956;5.876;2022-10-22T04:36:07;15.49;68.48
73112;HTU21D;61301;51.956;5.876;2022-10-22T04:38:34;15.52;68.29
73112;HTU21D;61301;51.956;5.876;2022-10-22T04:41:14;15.55;68.67
73112;HTU21D;61301;51.956;5.876;2022-10-22T04:43:41;15.61;68.47
73112;HTU21D;61301;51.956;5.876;2022-10-22T04:46:10;15.65;68.65
73112;HTU21D;61301;51.956;5.876;2022-10-22T04:48:38;15.70;68.97
73112;HTU21D;61301;51.956;5.876;2022-10-22T04:51:05;15.77;68.71
73112;HTU21D;61301;51.956;5.876;2022-10-22T04:53:32;15.81;68.85
73112;HTU21D;61301;51.956;5.876;2022-10-22T04:58:47;15.84;68.78
73112;HTU21D;61301;51.956;5.876;2022-10-22T05:01:15;15.81;69.13
73112;HTU21D;61301;51.956;5.876;2022-10-22T05:03:41;15.88;68.85
73112;HTU21D;61301;51.956;5.876;2022-10-22T05:06:07;15.88;69.52
73112;HTU21D;61301;51.956;5.876;2022-10-22T05:08:34;15.95;69.31
73112;HTU21D;61301;51.956;5.876;2022-10-22T05:11:00;15.90;69.26
73112;HTU21D;61301;51.956;5.876;2022-10-22T05:13:26;15.96;69.06
73112;HTU21D;61301;51.956;5.876;2022-10-22T05:15:52;16.00;69.59
73112;HTU21D;61301;51.956;5.876;2022-10-22T05:18:18;16.06;69.40
73112;HTU21D;61301;51.956;5.876;2022-10-22T05:20:44;16.02;69.71
73112;HTU21D;61301;51.956;5.876;2022-10-22T05:23:09;16.05;69.71
73112;HTU21D;61301;51.956;5.876;2022-10-22T05:25:37;16.07;69.86
73112;HTU21D;61301;51.956;5.876;2022-10-22T05:28:03;16.03;69.81
73112;HTU21D;61301;51.956;5.876;2022-10-22T05:30:29;16.02;70.06
73112;HTU21D;61301;51.956;5.876;2022-10-22T05:32:55;16.08;70.13
73112;HTU21D;61301;51.956;5.876;2022-10-22T05:35:21;16.12;70.61
73112;HTU21D;61301;51.956;5.876;2022-10-22T05:37:47;16.16;70.51
73112;HTU21D;61301;51.956;5.876;2022-10-22T05:40:13;16.18;70.43
73112;HTU21D;61301;51.956;5.876;2022-10-22T05:42:39;16.20;70.39
73112;HTU21D;61301;51.956;5.876;2022-10-22T05:45:05;16.22;70.19
73112;HTU21D;61301;51.956;5.876;2022-10-22T05:47:32;16.35;69.81
73112;HTU21D;61301;51.956;5.876;2022-10-22T05:49:59;16.47;69.52
73112;HTU21D;61301;51.956;5.876;2022-10-22T05:52:25;16.42;69.96
73112;HTU21D;61301;51.956;5.876;2022-10-22T05:54:51;16.43;69.90
73112;HTU21D;61301;51.956;5.876;2022-10-22T05:57:17;16.44;69.97
73112;HTU21D;61301;51.956;5.876;2022-10-22T05:59:43;16.46;70.07
73112;HTU21D;61301;51.956;5.876;2022-10-22T06:02:09;16.47;70.24
73112;HTU21D;61301;51.956;5.876;2022-10-22T06:04:35;16.44;70.45
73112;HTU21D;61301;51.956;5.876;2022-10-22T06:07:01;16.46;70.66
73112;HTU21D;61301;51.956;5.876;2022-10-22T06:09:33;16.50;70.61
73112;HTU21D;61301;51.956;5.876;2022-10-22T06:12:00;16.62;70.19
73112;HTU21D;61301;51.956;5.876;2022-10-22T06:14:27;16.61;70.55
73112;HTU21D;61301;51.956;5.876;2022-10-22T06:16:54;16.61;70.66
73112;HTU21D;61301;51.956;5.876;2022-10-22T06:19:21;16.65;70.50
73112;HTU21D;61301;51.956;5.876;2022-10-22T06:21:48;16.72;70.30
73112;HTU21D;61301;51.956;5.876;2022-10-22T06:24:14;16.71;70.55
73112;HTU21D;61301;51.956;5.876;2022-10-22T06:26:40;16.76;70.53
73112;HTU21D;61301;51.956;5.876;2022-10-22T06:29:07;16.82;70.26
73112;HTU21D;61301;51.956;5.876;2022-10-22T06:31:33;16.87;70.23
73112;HTU21D;61301;51.956;5.876;2022-10-22T06:34:03;16.87;70.30
73112;HTU21D;61301;51.956;5.876;2022-10-22T06:36:29;16.91;70.41
73112;HTU21D;61301;51.956;5.876;2022-10-22T06:38:55;16.95;70.23
73112;HTU21D;61301;51.956;5.876;2022-10-22T06:41:21;16.96;70.11
73112;HTU21D;61301;51.956;5.876;2022-10-22T06:43:47;16.98;69.87
73112;HTU21D;61301;51.956;5.876;2022-10-22T06:46:16;17.01;69.65
73112;HTU21D;61301;51.956;5.876;2022-10-22T06:48:46;17.02;69.69
73112;HTU21D;61301;51.956;5.876;2022-10-22T06:51:12;17.01;69.63
73112;HTU21D;61301;51.956;5.876;2022-10-22T06:53:40;17.01;69.69
73112;HTU21D;61301;51.956;5.876;2022-10-22T06:56:08;17.03;69.52
73112;HTU21D;61301;51.956;5.876;2022-10-22T06:58:34;17.02;69.51
73112;HTU21D;61301;51.956;5.876;2022-10-22T07:01:09;17.07;69.36
73112;HTU21D;61301;51.956;5.876;2022-10-22T07:03:35;17.08;69.25
73112;HTU21D;61301;51.956;5.876;2022-10-22T07:06:05;17.09;69.42
73112;HTU21D;61301;51.956;5.876;2022-10-22T07:08:32;17.11;69.52
73112;HTU21D;61301;51.956;5.876;2022-10-22T07:11:25;17.28;69.29
73112;HTU21D;61301;51.956;5.876;2022-10-22T07:13:56;17.32;69.32
73112;HTU21D;61301;51.956;5.876;2022-10-22T07:16:23;17.36;69.31
73112;HTU21D;61301;51.956;5.876;2022-10-22T07:18:49;17.38;69.45
73112;HTU21D;61301;51.956;5.876;2022-10-22T07:21:18;17.46;69.26
73112;HTU21D;61301;51.956;5.876;2022-10-22T07:23:45;17.51;69.01
73112;HTU21D;61301;51.956;5.876;2022-10-22T07:26:15;17.41;69.71
73112;HTU21D;61301;51.956;5.876;2022-10-22T07:28:42;17.48;69.24
73112;HTU21D;61301;51.956;5.876;2022-10-22T07:31:11;17.50;69.06
73112;HTU21D;61301;51.956;5.876;2022-10-22T07:33:37;17.58;68.87
73112;HTU21D;61301;51.956;5.876;2022-10-22T07:36:06;17.64;68.67
73112;HTU21D;61301;51.956;5.876;2022-10-22T07:38:32;17.66;68.60
73112;HTU21D;61301;51.956;5.876;2022-10-22T07:40:59;17.69;68.62
73112;HTU21D;61301;51.956;5.876;2022-10-22T07:43:25;17.79;68.42
73112;HTU21D;61301;51.956;5.876;2022-10-22T07:45:51;17.85;68.22
73112;HTU21D;61301;51.956;5.876;2022-10-22T07:48:17;17.94;68.05
73112;HTU21D;61301;51.956;5.876;2022-10-22T07:50:43;18.00;67.82
73112;HTU21D;61301;51.956;5.876;2022-10-22T07:53:09;18.00;67.68
73112;HTU21D;61301;51.956;5.876;2022-10-22T07:55:35;18.03;67.60
73112;HTU21D;61301;51.956;5.876;2022-10-22T07:58:02;18.17;67.36
73112;HTU21D;61301;51.956;5.876;2022-10-22T08:00:28;18.26;67.14
73112;HTU21D;61301;51.956;5.876;2022-10-22T08:02:54;18.38;66.60
73112;HTU21D;61301;51.956;5.876;2022-10-22T08:05:20;18.47;66.30
73112;HTU21D;61301;51.956;5.876;2022-10-22T08:07:46;18.63;66.14
73112;HTU21D;61301;51.956;5.876;2022-10-22T08:10:12;18.79;65.65
73112;HTU21D;61301;51.956;5.876;2022-10-22T08:12:39;18.83;65.10
73112;HTU21D;61301;51.956;5.876;2022-10-22T08:15:05;18.86;65.46
73112;HTU21D;61301;51.956;5.876;2022-10-22T08:17:31;18.98;65.16
73112;HTU21D;61301;51.956;5.876;2022-10-22T08:19:57;19.08;65.11
73112;HTU21D;61301;51.956;5.876;2022-10-22T08:22:23;19.03;65.08
73112;HTU21D;61301;51.956;5.876;2022-10-22T08:24:49;19.11;64.65
73112;HTU21D;61301;51.956;5.876;2022-10-22T08:27:15;19.16;64.64
73112;HTU21D;61301;51.956;5.876;2022-10-22T08:29:41;19.23;64.26
73112;HTU21D;61301;51.956;5.876;2022-10-22T08:32:07;19.28;63.78
73112;HTU21D;61301;51.956;5.876;2022-10-22T08:34:33;19.24;63.82
73112;HTU21D;61301;51.956;5.876;2022-10-22T08:36:59;19.21;63.95
73112;HTU21D;61301;51.956;5.876;2022-10-22T08:39:25;19.17;63.76
73112;HTU21D;61301;51.956;5.876;2022-10-22T08:42:03;19.11;64.52
73112;HTU21D;61301;51.956;5.876;2022-10-22T08:50:34;19.31;63.61
73112;HTU21D;61301;51.956;5.876;2022-10-22T08:53:06;19.32;63.78
73112;HTU21D;61301;51.956;5.876;2022-10-22T08:55:32;19.28;64.30
73112;HTU21D;61301;51.956;5.876;2022-10-22T08:58:10;19.37;64.02
73112;HTU21D;61301;51.956;5.876;2022-10-22T09:00:51;19.35;64.11
73112;HTU21D;61301;51.956;5.876;2022-10-22T09:08:42;19.42;63.49
73112;HTU21D;61301;51.956;5.876;2022-10-22T09:13:48;19.45;63.46
73112;HTU21D;61301;51.956;5.876;2022-10-22T09:16:16;19.44;63.66
73112;HTU21D;61301;51.956;5.876;2022-10-22T09:24:12;19.24;64.44
73112;HTU21D;61301;51.956;5.876;2022-10-22T09:26:40;19.14;64.78
73112;HTU21D;61301;51.956;5.876;2022-10-22T09:29:16;19.12;65.08
73112;HTU21D;61301;51.956;5.876;2022-10-22T09:31:44;19.06;65.51
73112;HTU21D;61301;51.956;5.876;2022-10-22T09:34:13;19.12;65.28
73112;HTU21D;61301;51.956;5.876;2022-10-22T09:36:39;19.03;65.65
73112;HTU21D;61301;51.956;5.876;2022-10-22T09:39:21;19.15;65.37
73112;HTU21D;61301;51.956;5.876;2022-10-22T09:41:48;19.13;65.39
73112;HTU21D;61301;51.956;5.876;2022-10-22T09:44:14;19.13;65.50
73112;HTU21D;61301;51.956;5.876;2022-10-22T09:46:40;19.16;65.52
73112;HTU21D;61301;51.956;5.876;2022-10-22T09:49:19;19.16;65.23
73112;HTU21D;61301;51.956;5.876;2022-10-22T09:51:50;19.21;65.08
73112;HTU21D;61301;51.956;5.876;2022-10-22T09:54:38;19.26;64.93
73112;HTU21D;61301;51.956;5.876;2022-10-22T09:57:15;19.30;64.78
73112;HTU21D;61301;51.956;5.876;2022-10-22T09:59:50;19.32;64.85
73112;HTU21D;61301;51.956;5.876;2022-10-22T10:02:21;19.33;64.47
73112;HTU21D;61301;51.956;5.876;2022-10-22T10:04:53;19.51;64.22
73112;HTU21D;61301;51.956;5.876;2022-10-22T10:07:29;19.67;63.03
73112;HTU21D;61301;51.956;5.876;2022-10-22T10:09:56;19.53;63.56
73112;HTU21D;61301;51.956;5.876;2022-10-22T10:12:51;19.50;63.68
73112;HTU21D;61301;51.956;5.876;2022-10-22T10:15:27;19.44;63.76
73112;HTU21D;61301;51.956;5.876;2022-10-22T10:20:53;19.44;63.96
73112;HTU21D;61301;51.956;5.876;2022-10-22T10:28:53;19.48;64.42
73112;HTU21D;61301;51.956;5.876;2022-10-22T10:34:38;19.67;63.98
73112;HTU21D;61301;51.956;5.876;2022-10-22T10:56:41;20.28;62.86
73112;HTU21D;61301;51.956;5.876;2022-10-22T11:01:45;20.45;61.53
73112;HTU21D;61301;51.956;5.876;2022-10-22T11:06:41;20.48;61.58
73112;HTU21D;61301;51.956;5.876;2022-10-22T11:09:23;20.69;60.92
73112;HTU21D;61301;51.956;5.876;2022-10-22T11:11:54;20.88;60.82
73112;HTU21D;61301;51.956;5.876;2022-10-22T11:14:52;21.04;60.48
73112;HTU21D;61301;51.956;5.876;2022-10-22T11:17:22;21.20;60.80
73112;HTU21D;61301;51.956;5.876;2022-10-22T11:20:19;21.45;59.59
73112;HTU21D;61301;51.956;5.876;2022-10-22T11:22:53;21.62;58.54
73112;HTU21D;61301;51.956;5.876;2022-10-22T11:25:23;21.62;57.78
73112;HTU21D;61301;51.956;5.876;2022-10-22T11:27:58;21.76;56.52
73112;HTU21D;61301;51.956;5.876;2022-10-22T11:30:29;21.65;56.81
73112;HTU21D;61301;51.956;5.876;2022-10-22T11:32:59;21.92;56.39
73112;HTU21D;61301;51.956;5.876;2022-10-22T11:35:30;22.04;56.68
73112;HTU21D;61301;51.956;5.876;2022-10-22T11:37:58;22.23;56.03
73112;HTU21D;61301;51.956;5.876;2022-10-22T11:43:06;22.27;55.10
73112;HTU21D;61301;51.956;5.876;2022-10-22T11:45:38;22.29;55.30
73112;HTU21D;61301;51.956;5.876;2022-10-22T11:48:18;22.19;54.50
73112;HTU21D;61301;51.956;5.876;2022-10-22T11:53:29;21.90;54.44
73112;HTU21D;61301;51.956;5.876;2022-10-22T11:56:42;21.82;55.55
73112;HTU21D;61301;51.956;5.876;2022-10-22T11:58:43;22.11;55.61
73112;HTU21D;61301;51.956;5.876;2022-10-22T12:03:43;22.19;54.84
73112;HTU21D;61301;51.956;5.876;2022-10-22T12:08:50;22.26;53.67
73112;HTU21D;61301;51.956;5.876;2022-10-22T12:17:13;22.54;54.12
73112;HTU21D;61301;51.956;5.876;2022-10-22T12:19:42;22.75;54.20
73112;HTU21D;61301;51.956;5.876;2022-10-22T12:24:47;23.11;52.98
73112;HTU21D;61301;51.956;5.876;2022-10-22T12:29:48;23.03;52.51
73112;HTU21D;61301;51.956;5.876;2022-10-22T12:32:15;22.94;52.62
73112;HTU21D;61301;51.956;5.876;2022-10-22T12:34:51;22.50;52.49
73112;HTU21D;61301;51.956;5.876;2022-10-22T12:37:18;22.34;53.40
73112;HTU21D;61301;51.956;5.876;2022-10-22T12:39:45;22.22;54.04
73112;HTU21D;61301;51.956;5.876;2022-10-22T12:42:14;22.24;54.36
73112;HTU21D;61301;51.956;5.876;2022-10-22T12:44:45;22.24;54.46
73112;HTU21D;61301;51.956;5.876;2022-10-22T12:47:14;22.17;53.85
73112;HTU21D;61301;51.956;5.876;2022-10-22T12:49:44;22.16;53.97
73112;HTU21D;61301;51.956;5.876;2022-10-22T12:52:21;22.49;53.97
73112;HTU21D;61301;51.956;5.876;2022-10-22T12:54:50;22.77;53.26
73112;HTU21D;61301;51.956;5.876;2022-10-22T12:57:20;22.97;53.12
73112;HTU21D;61301;51.956;5.876;2022-10-22T12:59:48;22.95;52.53
73112;HTU21D;61301;51.956;5.876;2022-10-22T13:02:25;22.80;52.44
73112;HTU21D;61301;51.956;5.876;2022-10-22T13:05:30;22.63;52.97
73112;HTU21D;61301;51.956;5.876;2022-10-22T13:08:07;22.41;53.52
73112;HTU21D;61301;51.956;5.876;2022-10-22T13:10:36;22.34;53.52
73112;HTU21D;61301;51.956;5.876;2022-10-22T13:13:02;22.36;53.49
73112;HTU21D;61301;51.956;5.876;2022-10-22T13:18:15;22.79;53.54
73112;HTU21D;61301;51.956;5.876;2022-10-22T13:20:59;22.85;52.62
73112;HTU21D;61301;51.956;5.876;2022-10-22T13:23:29;22.78;53.39
73112;HTU21D;61301;51.956;5.876;2022-10-22T13:26:15;22.84;53.00
73112;HTU21D;61301;51.956;5.876;2022-10-22T13:28:49;22.98;53.10
73112;HTU21D;61301;51.956;5.876;2022-10-22T13:31:17;23.13;52.37
73112;HTU21D;61301;51.956;5.876;2022-10-22T13:33:45;23.38;52.94
73112;HTU21D;61301;51.956;5.876;2022-10-22T13:36:13;23.73;52.18
73112;HTU21D;61301;51.956;5.876;2022-10-22T13:38:40;23.84;51.82
73112;HTU21D;61301;51.956;5.876;2022-10-22T13:41:20;23.62;50.87
73112;HTU21D;61301;51.956;5.876;2022-10-22T13:43:46;23.55;51.98
73112;HTU21D;61301;51.956;5.876;2022-10-22T13:46:12;23.69;50.93
73112;HTU21D;61301;51.956;5.876;2022-10-22T13:48:38;23.66;51.15
73112;HTU21D;61301;51.956;5.876;2022-10-22T13:51:16;23.50;51.58
73112;HTU21D;61301;51.956;5.876;2022-10-22T13:53:44;23.59;51.67
73112;HTU21D;61301;51.956;5.876;2022-10-22T13:56:15;23.66;51.11
73112;HTU21D;61301;51.956;5.876;2022-10-22T13:58:42;23.73;50.86
73112;HTU21D;61301;51.956;5.876;2022-10-22T14:01:27;23.76;51.23
73112;HTU21D;61301;51.956;5.876;2022-10-22T14:03:59;23.97;50.61
73112;HTU21D;61301;51.956;5.876;2022-10-22T14:06:29;23.97;50.22
73112;HTU21D;61301;51.956;5.876;2022-10-22T14:09:02;23.94;50.68
73112;HTU21D;61301;51.956;5.876;2022-10-22T14:11:28;23.79;49.59
73112;HTU21D;61301;51.956;5.876;2022-10-22T14:13:58;23.65;50.15
73112;HTU21D;61301;51.956;5.876;2022-10-22T14:16:26;23.47;50.53
73112;HTU21D;61301;51.956;5.876;2022-10-22T14:18:53;23.37;50.11
73112;HTU21D;61301;51.956;5.876;2022-10-22T14:21:20;23.23;50.83
73112;HTU21D;61301;51.956;5.876;2022-10-22T14:23:47;23.13;51.72
73112;HTU21D;61301;51.956;5.876;2022-10-22T14:26:25;23.16;51.45
73112;HTU21D;61301;51.956;5.876;2022-10-22T14:28:53;23.10;51.79
73112;HTU21D;61301;51.956;5.876;2022-10-22T14:31:20;23.09;52.03
73112;HTU21D;61301;51.956;5.876;2022-10-22T14:33:46;23.11;52.27
73112;HTU21D;61301;51.956;5.876;2022-10-22T14:36:15;23.11;52.55
73112;HTU21D;61301;51.956;5.876;2022-10-22T14:38:43;23.07;53.06
73112;HTU21D;61301;51.956;5.876;2022-10-22T14:41:22;22.93;52.91
73112;HTU21D;61301;51.956;5.876;2022-10-22T14:43:49;22.85;53.57
73112;HTU21D;61301;51.956;5.876;2022-10-22T14:46:17;22.85;53.78
73112;HTU21D;61301;51.956;5.876;2022-10-22T14:48:44;22.83;54.02
73112;HTU21D;61301;51.956;5.876;2022-10-22T14:51:15;22.71;53.98
73112;HTU21D;61301;51.956;5.876;2022-10-22T14:53:42;22.65;54.60
73112;HTU21D;61301;51.956;5.876;2022-10-22T14:56:11;22.60;54.84
73112;HTU21D;61301;51.956;5.876;2022-10-22T14:58:37;22.54;54.39
73112;HTU21D;61301;51.956;5.876;2022-10-22T15:01:04;22.52;54.91
73112;HTU21D;61301;51.956;5.876;2022-10-22T15:03:30;22.65;54.04
73112;HTU21D;61301;51.956;5.876;2022-10-22T15:05:56;22.54;54.22
73112;HTU21D;61301;51.956;5.876;2022-10-22T15:08:22;22.43;54.25
73112;HTU21D;61301;51.956;5.876;2022-10-22T15:11:05;22.46;54.65
73112;HTU21D;61301;51.956;5.876;2022-10-22T15:13:32;22.50;54.71
73112;HTU21D;61301;51.956;5.876;2022-10-22T15:15:59;22.53;54.82
73112;HTU21D;61301;51.956;5.876;2022-10-22T15:18:26;22.58;54.91
73112;HTU21D;61301;51.956;5.876;2022-10-22T15:20:57;22.63;54.94
73112;HTU21D;61301;51.956;5.876;2022-10-22T15:23:23;22.65;54.97
73112;HTU21D;61301;51.956;5.876;2022-10-22T15:25:49;22.88;54.49
73112;HTU21D;61301;51.956;5.876;2022-10-22T15:28:15;22.98;54.20
73112;HTU21D;61301;51.956;5.876;2022-10-22T15:30:41;22.92;53.88
73112;HTU21D;61301;51.956;5.876;2022-10-22T15:33:07;22.83;54.47
73112;HTU21D;61301;51.956;5.876;2022-10-22T15:35:33;22.82;54.62
73112;HTU21D;61301;51.956;5.876;2022-10-22T15:37:59;22.81;54.75
73112;HTU21D;61301;51.956;5.876;2022-10-22T15:40:25;22.77;54.72
73112;HTU21D;61301;51.956;5.876;2022-10-22T15:42:51;22.76;54.87
73112;HTU21D;61301;51.956;5.876;2022-10-22T15:45:17;22.75;54.95
73112;HTU21D;61301;51.956;5.876;2022-10-22T15:47:46;22.71;54.89
73112;HTU21D;61301;51.956;5.876;2022-10-22T15:50:12;22.68;55.02
73112;HTU21D;61301;51.956;5.876;2022-10-22T15:52:38;22.64;55.12
73112;HTU21D;61301;51.956;5.876;2022-10-22T15:55:05;22.57;54.89
73112;HTU21D;61301;51.956;5.876;2022-10-22T15:57:35;22.52;54.36
73112;HTU21D;61301;51.956;5.876;2022-10-22T16:00:03;22.42;54.94
73112;HTU21D;61301;51.956;5.876;2022-10-22T16:02:38;22.35;55.05
73112;HTU21D;61301;51.956;5.876;2022-10-22T16:05:04;22.18;55.43
73112;HTU21D;61301;51.956;5.876;2022-10-22T16:07:30;22.07;55.55
73112;HTU21D;61301;51.956;5.876;2022-10-22T16:09:57;21.99;55.60
73112;HTU21D;61301;51.956;5.876;2022-10-22T16:12:25;21.94;55.83
73112;HTU21D;61301;51.956;5.876;2022-10-22T16:14:51;21.92;55.97
73112;HTU21D;61301;51.956;5.876;2022-10-22T16:17:17;21.84;56.00
73112;HTU21D;61301;51.956;5.876;2022-10-22T16:19:43;21.75;56.06
73112;HTU21D;61301;51.956;5.876;2022-10-22T16:22:09;21.64;56.19
73112;HTU21D;61301;51.956;5.876;2022-10-22T16:24:38;21.59;56.23
73112;HTU21D;61301;51.956;5.876;2022-10-22T16:27:08;21.50;56.18
73112;HTU21D;61301;51.956;5.876;2022-10-22T16:29:37;21.38;56.23
73112;HTU21D;61301;51.956;5.876;2022-10-22T16:32:05;21.29;56.32
73112;HTU21D;61301;51.956;5.876;2022-10-22T16:34:31;21.19;56.55
73112;HTU21D;61301;51.956;5.876;2022-10-22T16:36:57;21.04;56.68
73112;HTU21D;61301;51.956;5.876;2022-10-22T16:39:23;20.87;57.10
73112;HTU21D;61301;51.956;5.876;2022-10-22T16:41:49;20.83;57.25
73112;HTU21D;61301;51.956;5.876;2022-10-22T16:44:15;20.83;57.26
73112;HTU21D;61301;51.956;5.876;2022-10-22T16:46:41;20.87;57.17
73112;HTU21D;61301;51.956;5.876;2022-10-22T16:49:07;20.85;57.32
73112;HTU21D;61301;51.956;5.876;2022-10-22T16:51:33;20.92;57.14
73112;HTU21D;61301;51.956;5.876;2022-10-22T16:53:59;20.94;57.10
73112;HTU21D;61301;51.956;5.876;2022-10-22T16:56:25;20.92;57.07
73112;HTU21D;61301;51.956;5.876;2022-10-22T16:58:53;20.81;57.10
73112;HTU21D;61301;51.956;5.876;2022-10-22T17:01:22;20.63;57.32
73112;HTU21D;61301;51.956;5.876;2022-10-22T17:03:51;20.51;57.55
73112;HTU21D;61301;51.956;5.876;2022-10-22T17:06:17;20.43;57.68
73112;HTU21D;61301;51.956;5.876;2022-10-22T17:08:43;20.36;57.67
73112;HTU21D;61301;51.956;5.876;2022-10-22T17:11:14;20.25;57.87
73112;HTU21D;61301;51.956;5.876;2022-10-22T17:13:43;20.18;57.82
73112;HTU21D;61301;51.956;5.876;2022-10-22T17:16:12;20.12;58.12